createdAt,value
2023-05-17T00:02:08.713Z,8.25
2023-05-17T00:04:36.220Z,8.73
2023-05-17T00:07:03.780Z,8.23
2023-05-17T00:09:31.277Z,8.98
2023-05-17T00:11:58.624Z,8.52
2023-05-17T00:14:26.009Z,9.27
2023-05-17T00:16:53.390Z,7.97
2023-05-17T00:19:21.421Z,8.13
2023-05-17T00:21:48.958Z,8.10
2023-05-17T00:24:16.225Z,7.95
2023-05-17T00:26:43.615Z,8.48
2023-05-17T00:29:10.944Z,7.13
2023-05-17T00:31:38.141Z,8.10
2023-05-17T00:34:05.378Z,8.23
2023-05-17T00:36:32.642Z,8.02
2023-05-17T00:39:01.636Z,7.97
2023-05-17T00:41:28.963Z,8.07
2023-05-17T00:43:56.336Z,8.75
2023-05-17T00:46:23.649Z,7.93
2023-05-17T00:48:51.231Z,8.32
2023-05-17T00:51:21.142Z,8.00
2023-05-17T00:53:48.762Z,9.15
2023-05-17T00:56:16.452Z,8.23
2023-05-17T00:58:43.898Z,7.50
2023-05-17T01:01:11.599Z,7.68
2023-05-17T01:03:39.020Z,7.72
2023-05-17T01:06:07.154Z,7.43
2023-05-17T01:08:35.993Z,7.18
2023-05-17T01:11:32.505Z,7.30
2023-05-17T01:14:28.034Z,7.72
2023-05-17T01:17:02.657Z,8.82
2023-05-17T01:20:21.589Z,7.95
2023-05-17T01:23:21.054Z,8.02
2023-05-17T01:26:30.201Z,8.02
2023-05-17T01:28:59.973Z,6.75
2023-05-17T01:31:27.642Z,7.20
2023-05-17T01:33:59.731Z,7.32
2023-05-17T01:36:28.582Z,7.15
2023-05-17T01:38:55.875Z,7.10
2023-05-17T01:41:30.886Z,6.05
2023-05-17T01:44:38.139Z,7.00
2023-05-17T01:47:42.520Z,7.22
2023-05-17T01:50:13.130Z,6.88
2023-05-17T01:55:54.329Z,7.00
2023-05-17T01:58:26.750Z,7.18
2023-05-17T02:00:58.485Z,6.20
2023-05-17T02:03:29.528Z,6.72
2023-05-17T02:05:56.994Z,5.93
2023-05-17T02:08:24.395Z,6.40
2023-05-17T02:10:52.040Z,6.90
2023-05-17T02:13:19.330Z,6.30
2023-05-17T02:15:47.052Z,7.57
2023-05-17T02:18:14.705Z,8.02
2023-05-17T02:20:42.214Z,7.32
2023-05-17T02:23:09.654Z,7.13
2023-05-17T02:25:36.930Z,6.57
2023-05-17T02:28:04.422Z,6.65
2023-05-17T02:30:31.940Z,6.35
2023-05-17T02:32:59.673Z,7.50
2023-05-17T02:35:27.300Z,7.03
2023-05-17T02:37:54.786Z,7.25
2023-05-17T02:40:22.272Z,6.70
2023-05-17T02:42:49.517Z,5.93
2023-05-17T02:45:16.968Z,6.32
2023-05-17T02:47:44.387Z,5.75
2023-05-17T02:50:11.779Z,5.65
2023-05-17T02:52:39.530Z,5.03
2023-05-17T02:55:08.037Z,5.20
2023-05-17T02:57:35.467Z,5.28
2023-05-17T03:00:03.788Z,5.32
2023-05-17T03:02:31.477Z,5.40
2023-05-17T03:04:59.407Z,5.38
2023-05-17T03:07:27.173Z,4.45
2023-05-17T03:09:55.275Z,3.85
2023-05-17T03:12:23.734Z,4.13
2023-05-17T03:14:51.278Z,4.38
2023-05-17T03:17:20.624Z,4.05
2023-05-17T03:19:48.059Z,4.63
2023-05-17T03:22:15.490Z,4.30
2023-05-17T03:24:42.824Z,4.20
2023-05-17T03:27:10.809Z,3.00
2023-05-17T03:29:38.396Z,2.85
2023-05-17T03:32:06.729Z,2.50
2023-05-17T03:34:34.098Z,3.40
2023-05-17T03:37:01.936Z,2.80
2023-05-17T03:39:29.293Z,2.80
2023-05-17T03:41:56.831Z,2.70
2023-05-17T03:44:25.132Z,3.13
2023-05-17T03:46:53.830Z,2.80
2023-05-17T03:49:22.507Z,2.67
2023-05-17T03:51:50.925Z,2.67
2023-05-17T03:54:19.000Z,2.70
2023-05-17T03:56:49.069Z,3.17
2023-05-17T04:01:45.626Z,2.70
2023-05-17T04:04:14.584Z,2.80
2023-05-17T04:06:42.167Z,2.30
2023-05-17T04:09:11.218Z,3.20
2023-05-17T04:11:41.158Z,2.50
2023-05-17T04:14:08.693Z,3.45
2023-05-17T04:16:36.738Z,2.92
2023-05-17T04:19:04.961Z,3.13
2023-05-17T04:21:32.525Z,2.72
2023-05-17T04:23:59.802Z,3.00
2023-05-17T04:26:27.751Z,3.55
2023-05-17T04:28:55.080Z,3.47
2023-05-17T04:31:23.807Z,3.60
2023-05-17T04:33:51.726Z,3.67
2023-05-17T04:36:19.152Z,4.07
2023-05-17T04:38:46.646Z,4.43
2023-05-17T04:41:18.031Z,4.50
2023-05-17T04:43:45.410Z,5.55
2023-05-17T04:46:20.667Z,4.88
2023-05-17T04:48:48.345Z,4.88
2023-05-17T04:51:15.908Z,4.93
2023-05-17T04:53:43.303Z,5.35
2023-05-17T04:56:15.655Z,6.22
2023-05-17T04:58:43.648Z,5.95
2023-05-17T05:01:12.110Z,5.20
2023-05-17T05:03:40.439Z,5.40
2023-05-17T05:06:09.558Z,4.53
2023-05-17T05:08:37.715Z,5.10
2023-05-17T05:13:35.113Z,4.15
2023-05-17T05:16:02.562Z,4.15
2023-05-17T05:18:29.979Z,3.60
2023-05-17T05:20:57.874Z,4.03
2023-05-17T05:23:25.820Z,4.55
2023-05-17T05:25:53.311Z,4.57
2023-05-17T05:28:20.885Z,4.88
2023-05-17T05:30:49.036Z,4.53
2023-05-17T05:33:16.546Z,5.05
2023-05-17T05:35:44.183Z,5.07
2023-05-17T05:38:11.860Z,4.63
2023-05-17T05:40:40.042Z,4.72
2023-05-17T05:43:07.409Z,4.28
2023-05-17T05:45:34.672Z,3.80
2023-05-17T05:48:05.716Z,4.10
2023-05-17T05:50:35.338Z,3.57
2023-05-17T05:53:18.132Z,3.40
2023-05-17T05:55:51.343Z,3.70
2023-05-17T05:58:19.428Z,4.05
2023-05-17T06:00:47.790Z,3.03
2023-05-17T06:03:15.677Z,3.40
2023-05-17T06:05:43.278Z,3.40
2023-05-17T06:08:10.791Z,3.75
2023-05-17T06:10:37.991Z,3.85
2023-05-17T06:13:05.433Z,3.42
2023-05-17T06:15:32.926Z,3.00
2023-05-17T06:18:00.537Z,3.85
2023-05-17T06:20:28.176Z,3.42
2023-05-17T06:22:55.772Z,3.67
2023-05-17T06:25:23.317Z,4.03
2023-05-17T06:27:50.826Z,3.92
2023-05-17T06:30:18.175Z,3.60
2023-05-17T06:32:45.451Z,3.53
2023-05-17T06:35:12.747Z,3.00
2023-05-17T06:37:39.947Z,3.20
2023-05-17T06:40:16.120Z,2.92
2023-05-17T06:42:44.638Z,3.55
2023-05-17T06:45:13.242Z,3.42
2023-05-17T06:47:41.369Z,3.33
2023-05-17T06:50:09.429Z,3.00
2023-05-17T06:52:37.183Z,3.00
2023-05-17T06:55:08.744Z,2.53
2023-05-17T06:57:37.195Z,2.38
2023-05-17T07:00:11.116Z,3.33
2023-05-17T07:02:38.686Z,2.22
2023-05-17T07:05:07.241Z,2.60
2023-05-17T07:07:35.295Z,2.30
2023-05-17T07:10:02.818Z,2.63
2023-05-17T07:12:30.199Z,2.53
2023-05-17T07:14:57.484Z,2.97
2023-05-17T07:17:24.861Z,2.63
2023-05-17T07:19:52.494Z,2.80
2023-05-17T07:22:20.275Z,2.97
2023-05-17T07:24:48.055Z,2.70
2023-05-17T07:29:45.386Z,2.78
2023-05-17T07:32:12.901Z,2.83
2023-05-17T07:34:40.393Z,2.45
2023-05-17T07:37:07.642Z,2.03
2023-05-17T07:39:35.014Z,2.20
2023-05-17T07:42:04.529Z,2.85
2023-05-17T07:44:32.753Z,2.65
2023-05-17T07:47:00.317Z,2.90
2023-05-17T07:49:27.967Z,3.45
2023-05-17T07:51:55.740Z,3.90
2023-05-17T07:54:25.150Z,4.32
2023-05-17T07:56:55.086Z,3.90
2023-05-17T07:59:23.351Z,4.55
2023-05-17T08:01:51.277Z,4.45
2023-05-17T08:04:21.496Z,4.32
2023-05-17T08:06:50.223Z,4.75
2023-05-17T08:09:17.860Z,4.85
2023-05-17T08:11:48.759Z,4.38
2023-05-17T08:14:17.795Z,3.92
2023-05-17T08:16:46.893Z,4.85
2023-05-17T08:19:15.123Z,4.13
2023-05-17T08:21:44.783Z,4.10
2023-05-17T08:24:12.873Z,4.40
2023-05-17T08:26:40.995Z,4.03
2023-05-17T08:29:08.231Z,4.53
2023-05-17T08:31:35.715Z,4.78
2023-05-17T08:34:03.507Z,4.47
2023-05-17T08:36:31.090Z,5.13
2023-05-17T08:38:58.711Z,4.80
2023-05-17T08:41:26.056Z,4.50
2023-05-17T08:43:54.298Z,5.38
2023-05-17T08:46:23.820Z,5.03
2023-05-17T08:48:52.856Z,5.15
2023-05-17T08:51:20.891Z,5.68
2023-05-17T08:53:50.698Z,5.03
2023-05-17T08:56:20.858Z,5.32
2023-05-17T08:58:57.146Z,5.72
2023-05-17T09:01:27.189Z,5.40
2023-05-17T09:03:56.034Z,4.70
2023-05-17T09:06:24.396Z,4.45
2023-05-17T09:08:54.911Z,4.13
2023-05-17T09:14:05.998Z,3.58
2023-05-17T09:16:36.352Z,4.20
2023-05-17T09:19:06.444Z,4.57
2023-05-17T09:21:34.530Z,4.05
2023-05-17T09:24:07.152Z,5.38
2023-05-17T09:26:43.008Z,4.65
2023-05-17T09:29:12.660Z,3.95
2023-05-17T09:31:41.601Z,3.83
2023-05-17T09:34:09.761Z,3.95
2023-05-17T09:36:38.801Z,3.63
2023-05-17T09:39:12.293Z,3.17
2023-05-17T09:41:51.208Z,3.38
2023-05-17T09:44:18.463Z,3.00
2023-05-17T09:46:48.443Z,3.33
2023-05-17T09:49:17.532Z,4.63
2023-05-17T09:51:48.696Z,3.83
2023-05-17T09:54:17.891Z,3.88
2023-05-17T09:56:53.142Z,4.75
2023-05-17T09:59:21.019Z,4.65
2023-05-17T10:01:50.504Z,4.68
2023-05-17T10:04:23.310Z,4.85
2023-05-17T10:06:53.252Z,4.97
2023-05-17T10:09:23.069Z,5.55
2023-05-17T10:11:56.688Z,6.47
2023-05-17T10:14:36.220Z,5.38
2023-05-17T10:17:04.302Z,5.68
2023-05-17T10:19:32.566Z,5.80
2023-05-17T10:22:11.601Z,7.20
2023-05-17T10:24:52.353Z,6.75
2023-05-17T10:27:20.971Z,6.95
2023-05-17T10:29:50.706Z,6.18
2023-05-17T10:32:23.597Z,7.97
2023-05-17T10:35:02.069Z,6.78
2023-05-17T10:37:34.763Z,7.45
2023-05-17T10:40:02.393Z,7.95
2023-05-17T10:42:32.388Z,8.38
2023-05-17T10:45:01.779Z,9.27
2023-05-17T10:47:33.604Z,7.95
2023-05-17T10:50:04.791Z,7.80
2023-05-17T10:52:32.307Z,8.25
2023-05-17T10:55:00.810Z,8.63
2023-05-17T10:57:50.554Z,9.05
2023-05-17T11:00:31.362Z,7.70
2023-05-17T11:03:22.789Z,8.27
2023-05-17T11:06:24.403Z,8.05
2023-05-17T11:09:32.392Z,8.63
2023-05-17T11:12:09.321Z,8.18
2023-05-17T11:14:45.757Z,8.73
2023-05-17T11:17:21.388Z,7.13
2023-05-17T11:19:55.157Z,7.35
2023-05-17T11:22:27.701Z,7.53
2023-05-17T11:24:57.833Z,7.32
2023-05-17T11:27:28.891Z,8.32
2023-05-17T11:29:57.610Z,8.13
2023-05-17T11:32:32.998Z,8.13
2023-05-17T11:35:01.962Z,7.95
2023-05-17T11:37:31.389Z,9.68
2023-05-17T11:40:08.413Z,8.65
2023-05-17T11:42:37.494Z,8.30
2023-05-17T11:45:06.456Z,10.15
2023-05-17T11:47:38.853Z,8.57
2023-05-17T11:50:07.998Z,8.95
2023-05-17T11:52:35.531Z,9.30
2023-05-17T11:55:04.124Z,8.05
2023-05-17T11:57:32.773Z,8.55
2023-05-17T12:00:05.716Z,8.82
2023-05-17T12:02:42.320Z,8.15
2023-05-17T12:05:09.840Z,8.73
2023-05-17T12:07:37.651Z,8.70
2023-05-17T12:10:06.814Z,7.55
2023-05-17T12:12:34.503Z,8.15
2023-05-17T12:15:02.164Z,8.25
2023-05-17T12:17:38.683Z,8.50
2023-05-17T12:20:10.472Z,7.80
2023-05-17T12:22:57.339Z,6.63
2023-05-17T12:25:27.623Z,8.02
2023-05-17T12:28:22.351Z,7.20
2023-05-17T12:30:58.585Z,7.72
2023-05-17T12:33:26.877Z,8.18
2023-05-17T12:35:54.660Z,7.78
2023-05-17T12:38:22.288Z,8.00
2023-05-17T12:40:50.075Z,7.72
2023-05-17T12:43:18.777Z,6.90
2023-05-17T12:45:48.137Z,6.85
2023-05-17T12:48:15.705Z,7.70
2023-05-17T12:50:46.511Z,6.72
2023-05-17T12:53:13.936Z,6.90
2023-05-17T12:55:41.378Z,6.45
2023-05-17T12:58:08.711Z,6.85
2023-05-17T13:00:36.218Z,6.72
2023-05-17T13:03:11.052Z,6.82
2023-05-17T13:05:39.901Z,6.97
2023-05-17T13:08:21.531Z,6.10
2023-05-17T13:10:48.803Z,6.85
2023-05-17T13:13:20.690Z,6.80
2023-05-17T13:15:48.112Z,6.63
2023-05-17T13:18:16.511Z,6.40
2023-05-17T13:20:44.227Z,7.47
2023-05-17T13:23:11.432Z,7.88
2023-05-17T13:25:38.814Z,8.05
2023-05-17T13:28:06.225Z,8.27
2023-05-17T13:30:33.537Z,8.45
2023-05-17T13:33:01.041Z,7.63
2023-05-17T13:35:28.357Z,8.63
2023-05-17T13:37:58.044Z,9.32
2023-05-17T13:40:25.554Z,8.38
2023-05-17T13:42:52.831Z,9.88
2023-05-17T13:45:20.126Z,10.07
2023-05-17T13:47:47.696Z,11.35
2023-05-17T13:50:17.346Z,11.20
2023-05-17T13:52:44.767Z,11.40
2023-05-17T13:55:12.327Z,11.40
2023-05-17T13:57:39.717Z,10.75
2023-05-17T14:00:08.278Z,11.15
2023-05-17T14:02:36.866Z,12.10
2023-05-17T14:05:07.327Z,11.63
2023-05-17T14:07:34.779Z,10.57
2023-05-17T14:10:02.363Z,10.52
2023-05-17T14:12:29.956Z,10.77
2023-05-17T14:14:57.427Z,11.63
2023-05-17T14:17:24.921Z,11.02
2023-05-17T14:19:52.795Z,11.75
2023-05-17T14:22:20.183Z,11.40
2023-05-17T14:24:47.629Z,12.18
2023-05-17T14:27:15.378Z,11.98
2023-05-17T14:29:42.704Z,11.80
2023-05-17T14:32:13.000Z,11.93
2023-05-17T14:34:40.832Z,13.35
2023-05-17T14:37:08.664Z,12.05
2023-05-17T14:39:36.299Z,12.60
2023-05-17T14:42:04.265Z,11.95
2023-05-17T14:44:31.701Z,10.93
2023-05-17T14:46:59.135Z,11.40
2023-05-17T14:49:26.492Z,10.52
2023-05-17T14:51:53.812Z,11.10
2023-05-17T14:54:22.023Z,10.30
2023-05-17T14:56:49.327Z,10.10
2023-05-17T14:59:16.731Z,10.32
2023-05-17T15:01:43.935Z,10.57
2023-05-17T15:04:11.564Z,10.57
2023-05-17T15:06:38.995Z,11.15
2023-05-17T15:09:06.448Z,11.95
2023-05-17T15:11:33.942Z,10.88
2023-05-17T15:14:02.487Z,11.82
2023-05-17T15:16:30.094Z,11.38
2023-05-17T15:18:58.106Z,11.93
2023-05-17T15:21:26.167Z,12.80
2023-05-17T15:23:53.538Z,13.15
2023-05-17T15:26:21.590Z,12.30
2023-05-17T15:28:52.227Z,12.65
2023-05-17T15:33:47.222Z,12.10
2023-05-17T15:36:16.436Z,13.00
2023-05-17T15:38:45.042Z,13.20
2023-05-17T15:41:16.101Z,11.75
2023-05-17T15:43:44.282Z,12.55
2023-05-17T15:46:12.929Z,11.48
2023-05-17T15:48:40.406Z,36.95
2023-05-17T15:51:07.820Z,19.15
2023-05-17T15:53:35.153Z,12.40
2023-05-17T15:56:02.670Z,14.00
2023-05-17T15:58:33.526Z,15.50
2023-05-17T16:01:05.987Z,13.50
2023-05-17T16:03:34.210Z,13.50
2023-05-17T16:06:01.769Z,13.88
2023-05-17T16:08:29.370Z,13.95
2023-05-17T16:10:56.948Z,13.57
2023-05-17T16:13:24.422Z,13.30
2023-05-17T16:15:51.946Z,13.55
2023-05-17T16:18:19.524Z,13.18
2023-05-17T16:20:46.899Z,12.38
2023-05-17T16:23:14.293Z,14.15
2023-05-17T16:25:42.265Z,13.13
2023-05-17T16:28:09.525Z,12.32
2023-05-17T16:30:37.589Z,12.20
2023-05-17T16:33:08.266Z,13.15
2023-05-17T16:35:36.010Z,12.75
2023-05-17T16:38:03.341Z,12.77
2023-05-17T16:40:31.220Z,12.18
2023-05-17T16:42:58.791Z,11.02
2023-05-17T16:45:26.100Z,11.52
2023-05-17T16:47:53.502Z,12.35
2023-05-17T16:50:20.984Z,12.27
2023-05-17T16:52:48.397Z,12.30
2023-05-17T16:55:15.905Z,11.55
2023-05-17T16:57:43.873Z,12.07
2023-05-17T17:00:12.200Z,12.35
2023-05-17T17:02:39.556Z,12.13
2023-05-17T17:05:07.795Z,12.55
2023-05-17T17:07:35.130Z,12.23
2023-05-17T17:10:02.688Z,11.75
2023-05-17T17:12:30.026Z,12.10
2023-05-17T17:14:57.577Z,13.65
2023-05-17T17:17:24.921Z,15.25
2023-05-17T17:19:52.672Z,13.18
2023-05-17T17:22:20.260Z,13.02
2023-05-17T17:24:47.674Z,13.98
2023-05-17T17:27:15.047Z,13.02
2023-05-17T17:29:42.349Z,13.70
2023-05-17T17:32:09.792Z,13.50
2023-05-17T17:34:37.270Z,13.75
2023-05-17T17:37:04.766Z,13.65
2023-05-17T17:39:32.286Z,13.20
2023-05-17T17:41:59.826Z,13.00
2023-05-17T17:44:27.589Z,13.80
2023-05-17T17:46:55.487Z,14.68
2023-05-17T17:49:23.008Z,14.23
2023-05-17T17:51:50.283Z,14.07
2023-05-17T17:54:17.769Z,12.93
2023-05-17T17:56:45.539Z,15.18
2023-05-17T17:59:13.462Z,14.45
2023-05-17T18:01:41.022Z,15.85
2023-05-17T18:04:09.653Z,16.42
2023-05-17T18:06:37.266Z,15.60
2023-05-17T18:09:05.938Z,15.60
2023-05-17T18:11:33.401Z,15.77
2023-05-17T18:14:02.482Z,14.90
2023-05-17T18:16:30.794Z,15.07
2023-05-17T18:18:58.187Z,16.17
2023-05-17T18:21:25.624Z,17.15
2023-05-17T18:23:53.111Z,16.02
2023-05-17T18:26:21.364Z,15.30
2023-05-17T18:28:48.839Z,16.08
2023-05-17T18:31:16.377Z,15.85
2023-05-17T18:33:43.602Z,14.65
2023-05-17T18:36:10.942Z,14.73
2023-05-17T18:38:38.424Z,16.17
2023-05-17T18:41:05.872Z,15.30
2023-05-17T18:43:33.655Z,16.42
2023-05-17T18:46:01.161Z,15.73
2023-05-17T18:48:28.625Z,16.42
2023-05-17T18:50:57.627Z,15.50
2023-05-17T18:53:25.232Z,15.75
2023-05-17T18:55:52.627Z,15.98
2023-05-17T18:58:20.277Z,15.98
2023-05-17T19:00:48.719Z,15.23
2023-05-17T19:03:16.167Z,14.65
2023-05-17T19:05:43.617Z,14.77
2023-05-17T19:08:11.004Z,14.43
2023-05-17T19:10:38.453Z,14.50
2023-05-17T19:13:08.702Z,16.15
2023-05-17T19:15:36.353Z,15.93
2023-05-17T19:18:04.283Z,17.33
2023-05-17T19:20:32.011Z,15.95
2023-05-17T19:23:01.062Z,14.68
2023-05-17T19:25:28.795Z,15.63
2023-05-17T19:27:56.420Z,15.07
2023-05-17T19:30:23.904Z,15.23
2023-05-17T19:32:51.411Z,15.57
2023-05-17T19:35:19.368Z,14.90
2023-05-17T19:37:47.805Z,14.85
2023-05-17T19:40:18.738Z,14.98
2023-05-17T19:42:46.926Z,14.25
2023-05-17T19:45:14.759Z,14.45
2023-05-17T19:47:42.801Z,14.25
2023-05-17T19:50:11.763Z,14.32
2023-05-17T19:52:39.486Z,13.13
2023-05-17T19:55:07.102Z,13.45
2023-05-17T19:57:34.671Z,14.68
2023-05-17T20:00:02.250Z,15.10
2023-05-17T20:02:31.804Z,15.52
2023-05-17T20:05:02.241Z,13.88
2023-05-17T20:07:33.492Z,15.63
2023-05-17T20:10:00.850Z,14.85
2023-05-17T20:12:28.335Z,14.18
2023-05-17T20:14:55.725Z,14.50
2023-05-17T20:17:23.148Z,13.90
2023-05-17T20:19:51.462Z,15.48
2023-05-17T20:22:20.935Z,14.45
2023-05-17T20:24:48.345Z,12.98
2023-05-17T20:27:15.835Z,14.15
2023-05-17T20:29:43.425Z,12.93
2023-05-17T20:32:10.846Z,13.98
2023-05-17T20:34:38.323Z,13.38
2023-05-17T20:37:06.113Z,13.32
2023-05-17T20:39:33.344Z,13.50
2023-05-17T20:42:01.480Z,13.73
2023-05-17T20:44:28.773Z,13.15
2023-05-17T20:46:57.011Z,12.90
2023-05-17T20:49:24.191Z,12.38
2023-05-17T20:51:51.505Z,13.60
2023-05-17T20:54:18.900Z,13.55
2023-05-17T20:56:46.406Z,12.60
2023-05-17T20:59:13.748Z,13.50
2023-05-17T21:01:41.584Z,14.68
2023-05-17T21:04:09.243Z,14.25
2023-05-17T21:06:36.690Z,13.32
2023-05-17T21:09:04.069Z,13.68
2023-05-17T21:11:31.410Z,13.07
2023-05-17T21:13:59.819Z,13.43
2023-05-17T21:16:27.425Z,14.35
2023-05-17T21:18:55.145Z,13.63
2023-05-17T21:21:22.721Z,13.85
2023-05-17T21:23:50.064Z,12.98
2023-05-17T21:26:17.424Z,13.65
2023-05-17T21:28:44.682Z,13.60
2023-05-17T21:31:12.113Z,13.23
2023-05-17T21:33:39.556Z,12.73
2023-05-17T21:36:07.116Z,14.38
2023-05-17T21:38:34.481Z,14.23
2023-05-17T21:41:01.901Z,13.63
2023-05-17T21:43:29.117Z,12.43
2023-05-17T21:45:56.740Z,14.48
2023-05-17T21:48:24.624Z,13.63
2023-05-17T21:50:52.072Z,12.63
2023-05-17T21:53:19.304Z,14.32
2023-05-17T21:58:20.675Z,12.95
2023-05-17T22:00:48.064Z,12.80
2023-05-17T22:03:15.852Z,14.35
2023-05-17T22:05:43.141Z,14.15
2023-05-17T22:08:10.484Z,15.73
2023-05-17T22:10:40.326Z,13.07
2023-05-17T22:13:12.314Z,14.82
2023-05-17T22:15:41.687Z,13.85
2023-05-17T22:18:12.512Z,14.55
2023-05-17T22:20:40.075Z,14.80
2023-05-17T22:23:07.580Z,14.82
2023-05-17T22:25:35.544Z,14.93
2023-05-17T22:28:03.115Z,16.02
2023-05-17T22:30:30.584Z,14.18
2023-05-17T22:32:58.217Z,15.65
2023-05-17T22:35:25.735Z,13.88
2023-05-17T22:37:53.594Z,13.55
2023-05-17T22:40:21.387Z,13.50
2023-05-17T22:42:50.240Z,14.13
2023-05-17T22:45:18.344Z,14.35
2023-05-17T22:47:47.166Z,14.05
2023-05-17T22:50:15.907Z,14.10
2023-05-17T22:52:43.578Z,13.50
2023-05-17T22:55:11.406Z,13.98
2023-05-17T22:57:39.206Z,14.10
2023-05-17T23:00:09.317Z,14.40
2023-05-17T23:02:36.738Z,13.63
2023-05-17T23:05:04.939Z,14.27
2023-05-17T23:07:38.780Z,14.95
2023-05-17T23:10:11.706Z,14.02
2023-05-17T23:12:39.293Z,14.15
2023-05-17T23:15:08.043Z,13.05
2023-05-17T23:17:35.601Z,14.85
2023-05-17T23:20:07.586Z,13.80
2023-05-17T23:22:35.029Z,11.70
2023-05-17T23:25:06.165Z,14.45
2023-05-17T23:27:35.470Z,12.63
2023-05-17T23:30:04.564Z,11.65
2023-05-17T23:32:32.851Z,13.07
2023-05-17T23:35:04.316Z,12.68
2023-05-17T23:37:33.652Z,13.32
2023-05-17T23:40:01.194Z,11.57
2023-05-17T23:42:31.980Z,12.43
2023-05-17T23:45:00.780Z,12.45
2023-05-17T23:47:28.416Z,12.52
2023-05-17T23:49:56.692Z,13.07
2023-05-17T23:52:24.572Z,12.15
2023-05-17T23:54:51.984Z,12.00
2023-05-17T23:57:19.444Z,11.90
2023-05-17T23:59:46.759Z,11.95
